Seymour B Durst — WDC4078 — position and weather

sailwx.info

Track history (hours):
 
Tides and Currents Weather Stations Pressure Air Temp Water Temp Dewpoint Dewpoint Depression Visibility Wind Speed Wind Dir Waves Ship Positions

Seymour B Durst

Owner: NEW YORK TRANS HARBOR LLC, BROOKLYN, NY. More information available from US FCC via Universal Licensing System and Coast Guard Vessel Documentation Center.

Last reported at 2018-Jan-23 19:00 UTC. Time now 2018-Jan-23 19:26 UTC.
Position N 40°40' W 074°01'.

Type: Ship. MMSI: 367018750.

Date/timePositionNaut miles runAvg speedWind from/ knotsBaromVisibWave heightAir tempDewpointWater temp
2018-Jan-23 19:00N 40°40' W 074°01'0 0.0
2018-Jan-23 18:31N 40°40' W 074°01'0 0.0
2018-Jan-23 18:01N 40°40' W 074°01'0 0.0
2018-Jan-23 17:31N 40°40' W 074°01'0 0.0
2018-Jan-23 17:01N 40°40' W 074°01'0 0.0
2018-Jan-23 16:31N 40°40' W 074°01'0 0.0
2018-Jan-23 16:01N 40°40' W 074°01'0 0.0
2018-Jan-23 15:31N 40°40' W 074°01'0 0.0
2018-Jan-23 15:01N 40°40' W 074°01'0 0.0
2018-Jan-23 14:31N 40°40' W 074°01'0 0.9
2018-Jan-23 14:00N 40°41' W 074°01'5 9.8
2018-Jan-23 13:30N 40°45' W 073°58'1 1.5
2018-Jan-23 13:00N 40°45' W 073°57'4 7.3
2018-Jan-23 12:30N 40°42' W 073°60'1 2.1
2018-Jan-23 12:01N 40°43' W 073°59'4 6.6
2018-Jan-23 11:24N 40°46' W 073°56'410.2
2018-Jan-23 11:00N 40°43' W 073°59'3 6.0
2018-Jan-23 10:30N 40°40' W 074°01'0 0.0
2018-Jan-23 00:18N 40°40' W 074°01'0 0.0
2018-Jan-23 00:00N 40°40' W 074°01'0 0.0
2018-Jan-22 23:30N 40°40' W 074°01'5 9.7
2018-Jan-22 23:00N 40°45' W 073°58'1 2.2
2018-Jan-22 22:30N 40°45' W 073°57'4 7.6
2018-Jan-22 22:00N 40°42' W 073°60'2 4.3
2018-Jan-22 21:31N 40°40' W 074°01'0 0.2
2018-Jan-22 21:00N 40°40' W 074°01'0 0.0
2018-Jan-22 20:30N 40°40' W 074°01'0 0.0
2018-Jan-22 20:00N 40°40' W 074°01'0 0.0
2018-Jan-22 19:30N 40°40' W 074°01'0 0.0
2018-Jan-22 19:00N 40°40' W 074°01'0 0.0
2018-Jan-22 18:30N 40°40' W 074°01'0 0.0
2018-Jan-22 18:00N 40°40' W 074°01'0 0.0
2018-Jan-22 17:30N 40°40' W 074°01'0 0.0
2018-Jan-22 17:00N 40°40' W 074°01'0 0.0
2018-Jan-22 16:30N 40°40' W 074°01'0 0.0
2018-Jan-22 16:00N 40°40' W 074°01'0 0.0
2018-Jan-22 15:30N 40°40' W 074°01'0 0.0
2018-Jan-22 15:00N 40°40' W 074°01'0 0.0
2018-Jan-22 14:30N 40°40' W 074°01'0 0.0
2018-Jan-22 14:00N 40°40' W 074°01'0 0.0
2018-Jan-22 13:30N 40°40' W 074°01'0 0.0
2018-Jan-22 12:59N 40°40' W 074°01'0 0.0
2018-Jan-22 12:29N 40°40' W 074°01'0 0.0
2018-Jan-22 12:00N 40°40' W 074°01'0 0.0
2018-Jan-22 11:30N 40°40' W 074°01'0 0.0
2018-Jan-22 11:00N 40°40' W 074°01'0 0.0
2018-Jan-22 10:30N 40°40' W 074°01'0 0.0
2018-Jan-21 23:04N 40°40' W 074°01'0 0.0
2018-Jan-21 23:00N 40°40' W 074°01'2 4.1
2018-Jan-21 22:30N 40°42' W 074°00'3 6.3
2018-Jan-21 21:59N 40°46' W 074°00'3 7.2
2018-Jan-21 21:30N 40°42' W 073°60'1 2.0
2018-Jan-21 21:00N 40°42' W 074°01'1 2.8
2018-Jan-21 20:30N 40°41' W 074°03'1 2.9
2018-Jan-21 20:00N 40°42' W 074°01'1 1.5
2018-Jan-21 19:30N 40°43' W 074°02'1 2.6
2018-Jan-21 19:00N 40°42' W 074°00'3 6.7
2018-Jan-21 18:30N 40°46' W 074°00'3 6.9
2018-Jan-21 18:00N 40°42' W 073°60'2 3.3
2018-Jan-21 17:30N 40°44' W 074°01'2 4.0
2018-Jan-21 17:01N 40°42' W 074°01'1 1.4
2018-Jan-21 16:30N 40°42' W 074°01'3 5.4
2018-Jan-21 16:00N 40°45' W 074°01'3 5.5
2018-Jan-21 15:30N 40°42' W 074°00'3 6.6
2018-Jan-21 15:00N 40°46' W 074°00'510.9
2018-Jan-21 14:31N 40°40' W 074°01'0 0.0
2018-Jan-21 14:00N 40°40' W 074°01'0 0.0
2018-Jan-20 22:05N 40°40' W 074°01'0 0.0
2018-Jan-20 22:00N 40°40' W 074°01'2 4.1
2018-Jan-20 21:30N 40°42' W 074°00'1 2.7
2018-Jan-20 21:00N 40°42' W 074°02'1 2.7
2018-Jan-20 20:30N 40°42' W 074°00'0 0.0
2018-Jan-20 20:00N 40°42' W 074°00'1 2.4
2018-Jan-20 19:30N 40°43' W 074°02'1 2.4
2018-Jan-20 19:00N 40°42' W 074°00'0 0.0
2018-Jan-20 18:30N 40°42' W 074°00'1 2.4
2018-Jan-20 18:01N 40°43' W 074°02'1 2.4
2018-Jan-20 17:30N 40°42' W 074°00'0 0.0
2018-Jan-20 17:01N 40°42' W 074°00'1 2.4
2018-Jan-20 16:31N 40°43' W 074°02'1 2.4
2018-Jan-20 16:00N 40°42' W 074°00'2 4.2
2018-Jan-20 15:30N 40°40' W 074°01'0 0.0
2018-Jan-20 00:26N 40°40' W 074°01'0 0.0
2018-Jan-20 00:00N 40°40' W 074°01'5 9.5
2018-Jan-19 23:30N 40°45' W 073°58'2 4.2
2018-Jan-19 22:58N 40°46' W 073°56'2 4.6
2018-Jan-19 22:30N 40°45' W 073°58'4 7.3
2018-Jan-19 22:00N 40°42' W 074°00'1 2.7
2018-Jan-19 21:30N 40°40' W 074°01'0 0.0
2018-Jan-19 21:00N 40°40' W 074°01'0 0.0
2018-Jan-19 20:30N 40°40' W 074°01'0 0.0
2018-Jan-19 20:00N 40°40' W 074°01'0 0.0
2018-Jan-19 19:30N 40°40' W 074°01'0 0.0
2018-Jan-19 19:00N 40°40' W 074°01'0 0.0
2018-Jan-19 18:30N 40°40' W 074°01'0 0.0
2018-Jan-19 18:00N 40°40' W 074°01'0 0.0
2018-Jan-19 17:30N 40°40' W 074°01'0 0.0
2018-Jan-19 17:00N 40°40' W 074°01'0 0.0
2018-Jan-19 16:30N 40°40' W 074°01'2 3.8
2018-Jan-19 16:00N 40°42' W 074°00'2 4.2
2018-Jan-19 15:30N 40°43' W 073°58'1 1.2
2018-Jan-19 15:00N 40°44' W 073°58'3 4.8
2018-Jan-19 14:29N 40°42' W 074°00'2 4.9
2018-Jan-19 14:00N 40°44' W 073°58'0 0.6
2018-Jan-19 13:30N 40°43' W 073°58'2 4.3
2018-Jan-19 13:00N 40°42' W 074°00'1 2.8
2018-Jan-19 12:31N 40°42' W 073°59'3 5.6
2018-Jan-19 12:00N 40°40' W 074°01'0 0.0
2018-Jan-19 11:30N 40°40' W 074°01'0 0.0
2018-Jan-19 11:00N 40°40' W 074°01'0 0.0
2018-Jan-19 00:41N 40°40' W 074°01'0 0.0
2018-Jan-19 00:31N 40°40' W 074°01'0 0.0
2018-Jan-19 00:01N 40°40' W 074°01'0 0.0
2018-Jan-18 23:31N 40°40' W 074°01'0 0.0
2018-Jan-18 23:01N 40°40' W 074°01'0 0.0
2018-Jan-18 22:31N 40°40' W 074°01'0 0.0
2018-Jan-18 22:01N 40°40' W 074°01'0 0.0
2018-Jan-18 21:31N 40°40' W 074°01'0 0.0
2018-Jan-18 21:01N 40°40' W 074°01'0 0.0
2018-Jan-18 20:31N 40°40' W 074°01'0 0.0
2018-Jan-18 20:00N 40°40' W 074°01'0 0.0
2018-Jan-18 19:30N 40°40' W 074°01'0 0.0
2018-Jan-18 19:00N 40°40' W 074°01'0 0.0
2018-Jan-18 18:31N 40°40' W 074°01'0 0.0
2018-Jan-18 18:01N 40°40' W 074°01'0 0.0
2018-Jan-18 17:30N 40°40' W 074°01'0 0.0
2018-Jan-18 17:01N 40°40' W 074°01'0 0.0
2018-Jan-18 16:31N 40°40' W 074°01'0 0.0
2018-Jan-18 16:01N 40°40' W 074°01'0 0.0
2018-Jan-18 15:31N 40°40' W 074°01'0 0.0
2018-Jan-18 15:01N 40°40' W 074°01'0 0.0
2018-Jan-18 14:31N 40°40' W 074°01'0 0.0
2018-Jan-18 14:01N 40°40' W 074°01'0 0.0
2018-Jan-18 13:31N 40°40' W 074°01'0 0.0
2018-Jan-18 13:01N 40°40' W 074°01'0 0.0
2018-Jan-18 12:30N 40°40' W 074°01'0 0.0
2018-Jan-18 12:01N 40°40' W 074°01'0 0.0
2018-Jan-18 11:31N 40°40' W 074°01'0 0.0
2018-Jan-18 11:01N 40°40' W 074°01'0 0.0
2018-Jan-18 10:30N 40°40' W 074°01'0 0.0
2018-Jan-18 00:38N 40°40' W 074°01'0 0.0
2018-Jan-18 00:00N 40°40' W 074°01'0 0.0
2018-Jan-17 23:57N 40°40' W 074°01'  
Track history (hours):
 
Tides and Currents Weather Stations Pressure Air Temp Water Temp Dewpoint Dewpoint Depression Visibility Wind Speed Wind Dir Waves Ship Positions

Seymour B Durst

Owner: NEW YORK TRANS HARBOR LLC, BROOKLYN, NY. More information available from US FCC via Universal Licensing System and Coast Guard Vessel Documentation Center.

Last reported at 2018-Jan-23 19:00 UTC. Time now 2018-Jan-23 19:26 UTC.
Position N 40°40' W 074°01'.

Type: Ship. MMSI: 367018750.

Date/timePositionNaut miles runAvg speedWind from/ knotsBaromVisibWave heightAir tempDewpointWater temp
2018-Jan-23 19:00N 40°40' W 074°01'0 0.0
2018-Jan-23 18:31N 40°40' W 074°01'0 0.0
2018-Jan-23 18:01N 40°40' W 074°01'0 0.0
2018-Jan-23 17:31N 40°40' W 074°01'0 0.0
2018-Jan-23 17:01N 40°40' W 074°01'0 0.0
2018-Jan-23 16:31N 40°40' W 074°01'0 0.0
2018-Jan-23 16:01N 40°40' W 074°01'0 0.0
2018-Jan-23 15:31N 40°40' W 074°01'0 0.0
2018-Jan-23 15:01N 40°40' W 074°01'0 0.0
2018-Jan-23 14:31N 40°40' W 074°01'0 0.9
2018-Jan-23 14:00N 40°41' W 074°01'5 9.8
2018-Jan-23 13:30N 40°45' W 073°58'1 1.5
2018-Jan-23 13:00N 40°45' W 073°57'4 7.3
2018-Jan-23 12:30N 40°42' W 073°60'1 2.1
2018-Jan-23 12:01N 40°43' W 073°59'4 6.6
2018-Jan-23 11:24N 40°46' W 073°56'410.2
2018-Jan-23 11:00N 40°43' W 073°59'3 6.0
2018-Jan-23 10:30N 40°40' W 074°01'0 0.0
2018-Jan-23 00:18N 40°40' W 074°01'0 0.0
2018-Jan-23 00:00N 40°40' W 074°01'0 0.0
2018-Jan-22 23:30N 40°40' W 074°01'5 9.7
2018-Jan-22 23:00N 40°45' W 073°58'1 2.2
2018-Jan-22 22:30N 40°45' W 073°57'4 7.6
2018-Jan-22 22:00N 40°42' W 073°60'2 4.3
2018-Jan-22 21:31N 40°40' W 074°01'0 0.2
2018-Jan-22 21:00N 40°40' W 074°01'0 0.0
2018-Jan-22 20:30N 40°40' W 074°01'0 0.0
2018-Jan-22 20:00N 40°40' W 074°01'0 0.0
2018-Jan-22 19:30N 40°40' W 074°01'0 0.0
2018-Jan-22 19:00N 40°40' W 074°01'0 0.0
2018-Jan-22 18:30N 40°40' W 074°01'0 0.0
2018-Jan-22 18:00N 40°40' W 074°01'0 0.0
2018-Jan-22 17:30N 40°40' W 074°01'0 0.0
2018-Jan-22 17:00N 40°40' W 074°01'0 0.0
2018-Jan-22 16:30N 40°40' W 074°01'0 0.0
2018-Jan-22 16:00N 40°40' W 074°01'0 0.0
2018-Jan-22 15:30N 40°40' W 074°01'0 0.0
2018-Jan-22 15:00N 40°40' W 074°01'0 0.0
2018-Jan-22 14:30N 40°40' W 074°01'0 0.0
2018-Jan-22 14:00N 40°40' W 074°01'0 0.0
2018-Jan-22 13:30N 40°40' W 074°01'0 0.0
2018-Jan-22 12:59N 40°40' W 074°01'0 0.0
2018-Jan-22 12:29N 40°40' W 074°01'0 0.0
2018-Jan-22 12:00N 40°40' W 074°01'0 0.0
2018-Jan-22 11:30N 40°40' W 074°01'0 0.0
2018-Jan-22 11:00N 40°40' W 074°01'0 0.0
2018-Jan-22 10:30N 40°40' W 074°01'0 0.0
2018-Jan-21 23:04N 40°40' W 074°01'0 0.0
2018-Jan-21 23:00N 40°40' W 074°01'2 4.1
2018-Jan-21 22:30N 40°42' W 074°00'3 6.3
2018-Jan-21 21:59N 40°46' W 074°00'3 7.2
2018-Jan-21 21:30N 40°42' W 073°60'1 2.0
2018-Jan-21 21:00N 40°42' W 074°01'1 2.8
2018-Jan-21 20:30N 40°41' W 074°03'1 2.9
2018-Jan-21 20:00N 40°42' W 074°01'1 1.5
2018-Jan-21 19:30N 40°43' W 074°02'1 2.6
2018-Jan-21 19:00N 40°42' W 074°00'3 6.7
2018-Jan-21 18:30N 40°46' W 074°00'3 6.9
2018-Jan-21 18:00N 40°42' W 073°60'2 3.3
2018-Jan-21 17:30N 40°44' W 074°01'2 4.0
2018-Jan-21 17:01N 40°42' W 074°01'1 1.4
2018-Jan-21 16:30N 40°42' W 074°01'3 5.4
2018-Jan-21 16:00N 40°45' W 074°01'3 5.5
2018-Jan-21 15:30N 40°42' W 074°00'3 6.6
2018-Jan-21 15:00N 40°46' W 074°00'510.9
2018-Jan-21 14:31N 40°40' W 074°01'0 0.0
2018-Jan-21 14:00N 40°40' W 074°01'0 0.0
2018-Jan-20 22:05N 40°40' W 074°01'0 0.0
2018-Jan-20 22:00N 40°40' W 074°01'2 4.1
2018-Jan-20 21:30N 40°42' W 074°00'1 2.7
2018-Jan-20 21:00N 40°42' W 074°02'1 2.7
2018-Jan-20 20:30N 40°42' W 074°00'0 0.0
2018-Jan-20 20:00N 40°42' W 074°00'1 2.4
2018-Jan-20 19:30N 40°43' W 074°02'1 2.4
2018-Jan-20 19:00N 40°42' W 074°00'0 0.0
2018-Jan-20 18:30N 40°42' W 074°00'1 2.4
2018-Jan-20 18:01N 40°43' W 074°02'1 2.4
2018-Jan-20 17:30N 40°42' W 074°00'0 0.0
2018-Jan-20 17:01N 40°42' W 074°00'1 2.4
2018-Jan-20 16:31N 40°43' W 074°02'1 2.4
2018-Jan-20 16:00N 40°42' W 074°00'2 4.2
2018-Jan-20 15:30N 40°40' W 074°01'0 0.0
2018-Jan-20 00:26N 40°40' W 074°01'0 0.0
2018-Jan-20 00:00N 40°40' W 074°01'5 9.5
2018-Jan-19 23:30N 40°45' W 073°58'2 4.2
2018-Jan-19 22:58N 40°46' W 073°56'2 4.6
2018-Jan-19 22:30N 40°45' W 073°58'4 7.3
2018-Jan-19 22:00N 40°42' W 074°00'1 2.7
2018-Jan-19 21:30N 40°40' W 074°01'0 0.0
2018-Jan-19 21:00N 40°40' W 074°01'0 0.0
2018-Jan-19 20:30N 40°40' W 074°01'0 0.0
2018-Jan-19 20:00N 40°40' W 074°01'0 0.0
2018-Jan-19 19:30N 40°40' W 074°01'0 0.0
2018-Jan-19 19:00N 40°40' W 074°01'0 0.0
2018-Jan-19 18:30N 40°40' W 074°01'0 0.0
2018-Jan-19 18:00N 40°40' W 074°01'0 0.0
2018-Jan-19 17:30N 40°40' W 074°01'0 0.0
2018-Jan-19 17:00N 40°40' W 074°01'0 0.0
2018-Jan-19 16:30N 40°40' W 074°01'2 3.8
2018-Jan-19 16:00N 40°42' W 074°00'2 4.2
2018-Jan-19 15:30N 40°43' W 073°58'1 1.2
2018-Jan-19 15:00N 40°44' W 073°58'3 4.8
2018-Jan-19 14:29N 40°42' W 074°00'2 4.9
2018-Jan-19 14:00N 40°44' W 073°58'0 0.6
2018-Jan-19 13:30N 40°43' W 073°58'2 4.3
2018-Jan-19 13:00N 40°42' W 074°00'1 2.8
2018-Jan-19 12:31N 40°42' W 073°59'3 5.6
2018-Jan-19 12:00N 40°40' W 074°01'0 0.0
2018-Jan-19 11:30N 40°40' W 074°01'0 0.0
2018-Jan-19 11:00N 40°40' W 074°01'0 0.0
2018-Jan-19 00:41N 40°40' W 074°01'0 0.0
2018-Jan-19 00:31N 40°40' W 074°01'0 0.0
2018-Jan-19 00:01N 40°40' W 074°01'0 0.0
2018-Jan-18 23:31N 40°40' W 074°01'0 0.0
2018-Jan-18 23:01N 40°40' W 074°01'0 0.0
2018-Jan-18 22:31N 40°40' W 074°01'0 0.0
2018-Jan-18 22:01N 40°40' W 074°01'0 0.0
2018-Jan-18 21:31N 40°40' W 074°01'0 0.0
2018-Jan-18 21:01N 40°40' W 074°01'0 0.0
2018-Jan-18 20:31N 40°40' W 074°01'0 0.0
2018-Jan-18 20:00N 40°40' W 074°01'0 0.0
2018-Jan-18 19:30N 40°40' W 074°01'0 0.0
2018-Jan-18 19:00N 40°40' W 074°01'0 0.0
2018-Jan-18 18:31N 40°40' W 074°01'0 0.0
2018-Jan-18 18:01N 40°40' W 074°01'0 0.0
2018-Jan-18 17:30N 40°40' W 074°01'0 0.0
2018-Jan-18 17:01N 40°40' W 074°01'0 0.0
2018-Jan-18 16:31N 40°40' W 074°01'0 0.0
2018-Jan-18 16:01N 40°40' W 074°01'0 0.0
2018-Jan-18 15:31N 40°40' W 074°01'0 0.0
2018-Jan-18 15:01N 40°40' W 074°01'0 0.0
2018-Jan-18 14:31N 40°40' W 074°01'0 0.0
2018-Jan-18 14:01N 40°40' W 074°01'0 0.0
2018-Jan-18 13:31N 40°40' W 074°01'0 0.0
2018-Jan-18 13:01N 40°40' W 074°01'0 0.0
2018-Jan-18 12:30N 40°40' W 074°01'0 0.0
2018-Jan-18 12:01N 40°40' W 074°01'0 0.0
2018-Jan-18 11:31N 40°40' W 074°01'0 0.0
2018-Jan-18 11:01N 40°40' W 074°01'0 0.0
2018-Jan-18 10:30N 40°40' W 074°01'0 0.0
2018-Jan-18 00:38N 40°40' W 074°01'0 0.0
2018-Jan-18 00:00N 40°40' W 074°01'0 0.0
2018-Jan-17 23:57N 40°40' W 074°01'  

Dump ship's entire track history